sensor_id;sensor_type;location;lat;lon;timestamp;pressure;altitude;pressure_sealevel;temperature;humidity
69035;BME280;56091;55.756;37.412;2023-04-29T00:04:04;98790.69;;;3.11;97.80
69035;BME280;56091;55.756;37.412;2023-04-29T00:09:06;98788.31;;;3.03;99.01
69035;BME280;56091;55.756;37.412;2023-04-29T00:14:06;98785.66;;;3.03;98.71
69035;BME280;56091;55.756;37.412;2023-04-29T00:19:07;98801.94;;;2.95;98.12
69035;BME280;56091;55.756;37.412;2023-04-29T00:24:08;98790.28;;;2.89;98.41
69035;BME280;56091;55.756;37.412;2023-04-29T00:29:09;98760.09;;;2.70;97.63
69035;BME280;56091;55.756;37.412;2023-04-29T00:34:10;98774.94;;;2.84;98.70
69035;BME280;56091;55.756;37.412;2023-04-29T00:39:11;98741.00;;;2.73;98.14
69035;BME280;56091;55.756;37.412;2023-04-29T00:44:13;98753.16;;;2.94;99.38
69035;BME280;56091;55.756;37.412;2023-04-29T00:49:14;98763.16;;;2.99;99.33
69035;BME280;56091;55.756;37.412;2023-04-29T00:54:16;98757.31;;;3.08;100.00
69035;BME280;56091;55.756;37.412;2023-04-29T00:59:17;98737.47;;;3.04;100.00
69035;BME280;56091;55.756;37.412;2023-04-29T01:04:18;98750.91;;;3.16;100.00
69035;BME280;56091;55.756;37.412;2023-04-29T01:14:36;98749.81;;;2.99;99.48
69035;BME280;56091;55.756;37.412;2023-04-29T01:19:53;98742.50;;;2.94;99.97
69035;BME280;56091;55.756;37.412;2023-04-29T01:24:56;98756.94;;;3.05;99.63
69035;BME280;56091;55.756;37.412;2023-04-29T01:35:28;98759.44;;;3.00;99.15
69035;BME280;56091;55.756;37.412;2023-04-29T01:40:40;98736.34;;;2.93;99.95
69035;BME280;56091;55.756;37.412;2023-04-29T01:45:48;98745.91;;;3.01;100.00
69035;BME280;56091;55.756;37.412;2023-04-29T01:50:51;98730.75;;;3.02;100.00
69035;BME280;56091;55.756;37.412;2023-04-29T01:55:52;98706.75;;;2.77;100.00
69035;BME280;56091;55.756;37.412;2023-04-29T02:01:02;98755.56;;;2.96;98.65
69035;BME280;56091;55.756;37.412;2023-04-29T02:06:06;98744.50;;;2.99;98.67
69035;BME280;56091;55.756;37.412;2023-04-29T02:11:08;98753.28;;;2.99;97.64
69035;BME280;56091;55.756;37.412;2023-04-29T02:16:14;98758.38;;;3.07;98.50
69035;BME280;56091;55.756;37.412;2023-04-29T02:21:29;98702.31;;;2.70;97.54
69035;BME280;56091;55.756;37.412;2023-04-29T02:26:34;98771.34;;;2.97;96.84
69035;BME280;56091;55.756;37.412;2023-04-29T02:31:35;98769.88;;;3.01;96.72
69035;BME280;56091;55.756;37.412;2023-04-29T02:36:36;98774.19;;;3.02;96.90
69035;BME280;56091;55.756;37.412;2023-04-29T02:41:40;98769.84;;;3.08;97.43
69035;BME280;56091;55.756;37.412;2023-04-29T02:46:41;98779.03;;;3.12;97.92
69035;BME280;56091;55.756;37.412;2023-04-29T02:51:47;98787.03;;;3.12;97.72
69035;BME280;56091;55.756;37.412;2023-04-29T02:56:49;98812.47;;;3.08;96.16
69035;BME280;56091;55.756;37.412;2023-04-29T03:01:50;98804.50;;;2.76;94.40
69035;BME280;56091;55.756;37.412;2023-04-29T03:06:56;98831.94;;;2.83;93.85
69035;BME280;56091;55.756;37.412;2023-04-29T03:11:59;98827.19;;;2.85;95.90
69035;BME280;56091;55.756;37.412;2023-04-29T03:17:00;98847.31;;;2.81;94.73
69035;BME280;56091;55.756;37.412;2023-04-29T03:22:01;98853.25;;;2.77;95.15
69035;BME280;56091;55.756;37.412;2023-04-29T03:27:03;98852.94;;;2.66;94.36
69035;BME280;56091;55.756;37.412;2023-04-29T03:32:04;98868.69;;;2.68;94.67
69035;BME280;56091;55.756;37.412;2023-04-29T03:37:05;98882.16;;;2.73;96.21
69035;BME280;56091;55.756;37.412;2023-04-29T03:42:06;98849.28;;;2.61;95.68
69035;BME280;56091;55.756;37.412;2023-04-29T03:47:07;98883.59;;;2.76;95.92
69035;BME280;56091;55.756;37.412;2023-04-29T03:52:09;98873.41;;;2.66;95.39
69035;BME280;56091;55.756;37.412;2023-04-29T03:57:13;98885.19;;;2.83;94.43
69035;BME280;56091;55.756;37.412;2023-04-29T04:02:14;98890.09;;;2.86;94.76
69035;BME280;56091;55.756;37.412;2023-04-29T04:07:15;98906.03;;;2.93;93.35
69035;BME280;56091;55.756;37.412;2023-04-29T04:12:34;98900.22;;;3.09;94.36
69035;BME280;56091;55.756;37.412;2023-04-29T04:17:38;98896.63;;;3.22;94.26
69035;BME280;56091;55.756;37.412;2023-04-29T04:22:40;98893.72;;;2.99;90.20
69035;BME280;56091;55.756;37.412;2023-04-29T04:27:51;98888.03;;;3.20;91.00
69035;BME280;56091;55.756;37.412;2023-04-29T04:33:10;98904.97;;;3.32;90.14
69035;BME280;56091;55.756;37.412;2023-04-29T04:38:13;98889.88;;;3.20;86.93
69035;BME280;56091;55.756;37.412;2023-04-29T04:43:15;98888.16;;;3.32;88.41
69035;BME280;56091;55.756;37.412;2023-04-29T04:48:17;98876.06;;;3.29;89.14
69035;BME280;56091;55.756;37.412;2023-04-29T04:53:23;98903.69;;;3.60;90.04
69035;BME280;56091;55.756;37.412;2023-04-29T04:58:31;98891.63;;;3.58;87.54
69035;BME280;56091;55.756;37.412;2023-04-29T05:03:32;98902.69;;;3.61;85.95
69035;BME280;56091;55.756;37.412;2023-04-29T05:08:37;98902.00;;;3.66;86.43
69035;BME280;56091;55.756;37.412;2023-04-29T05:13:39;98914.00;;;3.82;84.19
69035;BME280;56091;55.756;37.412;2023-04-29T05:18:40;98902.81;;;3.91;84.83
69035;BME280;56091;55.756;37.412;2023-04-29T05:23:44;98898.47;;;4.16;82.47
69035;BME280;56091;55.756;37.412;2023-04-29T05:28:46;98898.16;;;4.05;82.08
69035;BME280;56091;55.756;37.412;2023-04-29T05:33:48;98897.88;;;4.14;82.31
69035;BME280;56091;55.756;37.412;2023-04-29T05:38:49;98897.03;;;4.13;82.56
69035;BME280;56091;55.756;37.412;2023-04-29T05:43:52;98902.59;;;4.11;81.89
69035;BME280;56091;55.756;37.412;2023-04-29T05:48:53;98908.41;;;4.27;81.76
69035;BME280;56091;55.756;37.412;2023-04-29T05:53:54;98922.41;;;4.41;81.59
69035;BME280;56091;55.756;37.412;2023-04-29T05:58:54;98938.59;;;4.46;80.07
69035;BME280;56091;55.756;37.412;2023-04-29T06:03:55;98952.00;;;4.58;79.85
69035;BME280;56091;55.756;37.412;2023-04-29T06:09:26;98938.19;;;4.61;79.31
69035;BME280;56091;55.756;37.412;2023-04-29T06:14:27;98953.88;;;4.87;78.47
69035;BME280;56091;55.756;37.412;2023-04-29T06:19:28;98967.34;;;4.99;77.63
69035;BME280;56091;55.756;37.412;2023-04-29T06:24:29;98972.47;;;5.01;76.88
69035;BME280;56091;55.756;37.412;2023-04-29T06:29:31;98944.25;;;5.17;77.25
69035;BME280;56091;55.756;37.412;2023-04-29T06:34:32;98974.75;;;5.58;77.04
69035;BME280;56091;55.756;37.412;2023-04-29T06:40:05;98948.50;;;6.14;74.19
69035;BME280;56091;55.756;37.412;2023-04-29T06:45:17;98975.38;;;6.42;73.13
69035;BME280;56091;55.756;37.412;2023-04-29T06:50:33;98972.81;;;6.24;73.08
69035;BME280;56091;55.756;37.412;2023-04-29T06:55:34;98986.94;;;6.08;74.42
69035;BME280;56091;55.756;37.412;2023-04-29T07:00:37;98997.28;;;6.16;74.62
69035;BME280;56091;55.756;37.412;2023-04-29T07:05:37;98992.50;;;6.41;73.00
69035;BME280;56091;55.756;37.412;2023-04-29T07:10:40;99003.63;;;6.86;71.07
69035;BME280;56091;55.756;37.412;2023-04-29T07:15:41;99001.47;;;6.99;70.88
69035;BME280;56091;55.756;37.412;2023-04-29T07:20:42;98997.75;;;7.00;69.93
69035;BME280;56091;55.756;37.412;2023-04-29T07:25:44;99012.03;;;7.18;69.62
69035;BME280;56091;55.756;37.412;2023-04-29T07:30:45;99017.38;;;6.89;70.46
69035;BME280;56091;55.756;37.412;2023-04-29T07:35:46;99012.47;;;6.86;70.50
69035;BME280;56091;55.756;37.412;2023-04-29T07:40:48;99024.72;;;6.82;69.83
69035;BME280;56091;55.756;37.412;2023-04-29T07:45:49;99032.81;;;7.11;68.79
69035;BME280;56091;55.756;37.412;2023-04-29T07:50:49;99040.44;;;7.59;66.91
69035;BME280;56091;55.756;37.412;2023-04-29T07:55:51;99054.75;;;8.45;65.44
69035;BME280;56091;55.756;37.412;2023-04-29T08:00:54;99049.50;;;8.72;63.14
69035;BME280;56091;55.756;37.412;2023-04-29T08:06:00;99049.03;;;8.24;63.93
69035;BME280;56091;55.756;37.412;2023-04-29T08:11:01;99061.50;;;8.13;64.85
69035;BME280;56091;55.756;37.412;2023-04-29T08:16:02;99070.88;;;8.62;65.36
69035;BME280;56091;55.756;37.412;2023-04-29T08:21:03;99082.53;;;8.89;61.19
69035;BME280;56091;55.756;37.412;2023-04-29T08:26:10;99070.84;;;8.78;61.07
69035;BME280;56091;55.756;37.412;2023-04-29T08:31:17;99077.72;;;8.52;61.86
69035;BME280;56091;55.756;37.412;2023-04-29T08:36:19;99085.69;;;8.64;60.16
69035;BME280;56091;55.756;37.412;2023-04-29T08:41:20;99078.78;;;8.51;60.59
69035;BME280;56091;55.756;37.412;2023-04-29T08:46:24;99078.44;;;8.48;58.29
69035;BME280;56091;55.756;37.412;2023-04-29T08:51:25;99076.28;;;8.45;59.99
69035;BME280;56091;55.756;37.412;2023-04-29T08:56:27;99088.69;;;8.17;59.04
69035;BME280;56091;55.756;37.412;2023-04-29T09:01:29;99087.78;;;8.28;59.22
69035;BME280;56091;55.756;37.412;2023-04-29T09:06:31;99078.16;;;8.83;55.17
69035;BME280;56091;55.756;37.412;2023-04-29T09:11:33;99074.03;;;9.19;53.81
69035;BME280;56091;55.756;37.412;2023-04-29T09:16:35;99091.84;;;9.21;53.05
69035;BME280;56091;55.756;37.412;2023-04-29T09:21:37;99083.31;;;9.29;52.28
69035;BME280;56091;55.756;37.412;2023-04-29T09:26:42;99102.69;;;10.02;50.74
69035;BME280;56091;55.756;37.412;2023-04-29T09:31:43;99088.16;;;10.35;49.97
69035;BME280;56091;55.756;37.412;2023-04-29T09:36:49;99100.75;;;10.30;45.44
69035;BME280;56091;55.756;37.412;2023-04-29T09:51:59;99121.00;;;10.05;45.72
69035;BME280;56091;55.756;37.412;2023-04-29T09:57:01;99116.44;;;9.78;46.33
69035;BME280;56091;55.756;37.412;2023-04-29T10:02:16;99130.84;;;9.89;46.77
69035;BME280;56091;55.756;37.412;2023-04-29T10:07:21;99138.22;;;9.99;45.59
69035;BME280;56091;55.756;37.412;2023-04-29T10:12:22;99127.28;;;9.84;46.07
69035;BME280;56091;55.756;37.412;2023-04-29T10:17:45;99135.91;;;10.72;44.78
69035;BME280;56091;55.756;37.412;2023-04-29T10:22:51;99129.25;;;11.33;41.71
69035;BME280;56091;55.756;37.412;2023-04-29T10:27:54;99147.34;;;10.90;41.60
69035;BME280;56091;55.756;37.412;2023-04-29T10:32:55;99160.13;;;10.67;42.83
69035;BME280;56091;55.756;37.412;2023-04-29T10:38:00;99157.81;;;10.49;43.63
69035;BME280;56091;55.756;37.412;2023-04-29T10:43:05;99165.31;;;10.74;43.02
69035;BME280;56091;55.756;37.412;2023-04-29T10:48:13;99175.34;;;11.21;43.29
69035;BME280;56091;55.756;37.412;2023-04-29T10:53:17;99159.75;;;11.33;42.37
69035;BME280;56091;55.756;37.412;2023-04-29T11:03:54;99173.28;;;10.96;41.07
69035;BME280;56091;55.756;37.412;2023-04-29T11:09:18;99159.78;;;11.44;39.65
69035;BME280;56091;55.756;37.412;2023-04-29T11:14:35;99167.06;;;11.43;38.15
69035;BME280;56091;55.756;37.412;2023-04-29T11:19:44;99169.81;;;12.22;36.77
69035;BME280;56091;55.756;37.412;2023-04-29T11:25:11;99182.25;;;12.69;35.19
69035;BME280;56091;55.756;37.412;2023-04-29T11:30:12;99159.53;;;12.55;34.70
69035;BME280;56091;55.756;37.412;2023-04-29T11:35:16;99175.22;;;12.88;34.70
69035;BME280;56091;55.756;37.412;2023-04-29T11:40:20;99167.31;;;13.13;35.00
69035;BME280;56091;55.756;37.412;2023-04-29T11:45:21;99182.94;;;13.57;34.44
69035;BME280;56091;55.756;37.412;2023-04-29T11:50:22;99181.06;;;14.12;34.73
69035;BME280;56091;55.756;37.412;2023-04-29T11:55:23;99180.06;;;14.37;33.41
69035;BME280;56091;55.756;37.412;2023-04-29T12:00:25;99174.81;;;14.51;32.62
69035;BME280;56091;55.756;37.412;2023-04-29T12:05:26;99142.22;;;14.17;31.77
69035;BME280;56091;55.756;37.412;2023-04-29T12:10:27;99170.00;;;13.38;32.51
69035;BME280;56091;55.756;37.412;2023-04-29T12:15:29;99183.59;;;13.07;32.46
69035;BME280;56091;55.756;37.412;2023-04-29T12:20:31;99185.16;;;13.29;31.85
69035;BME280;56091;55.756;37.412;2023-04-29T12:25:32;99185.66;;;13.52;31.55
69035;BME280;56091;55.756;37.412;2023-04-29T12:30:33;99171.63;;;13.24;31.92
69035;BME280;56091;55.756;37.412;2023-04-29T12:35:38;99173.88;;;13.01;32.12
69035;BME280;56091;55.756;37.412;2023-04-29T12:40:38;99189.03;;;12.61;32.32
69035;BME280;56091;55.756;37.412;2023-04-29T12:45:40;99181.41;;;12.99;32.42
69035;BME280;56091;55.756;37.412;2023-04-29T12:50:40;99181.19;;;12.96;31.35
69035;BME280;56091;55.756;37.412;2023-04-29T12:55:41;99175.22;;;13.09;31.20
69035;BME280;56091;55.756;37.412;2023-04-29T13:00:44;99169.22;;;13.12;30.89
69035;BME280;56091;55.756;37.412;2023-04-29T13:05:48;99171.59;;;13.50;29.41
69035;BME280;56091;55.756;37.412;2023-04-29T13:10:53;99176.22;;;13.49;29.65
69035;BME280;56091;55.756;37.412;2023-04-29T13:15:53;99167.31;;;13.23;29.41
69035;BME280;56091;55.756;37.412;2023-04-29T13:20:54;99181.69;;;13.08;30.46
69035;BME280;56091;55.756;37.412;2023-04-29T13:25:55;99170.09;;;12.77;30.21
69035;BME280;56091;55.756;37.412;2023-04-29T13:30:56;99171.44;;;12.43;30.84
69035;BME280;56091;55.756;37.412;2023-04-29T13:36:00;99166.31;;;12.62;30.63
69035;BME280;56091;55.756;37.412;2023-04-29T13:41:04;99171.41;;;12.89;30.35
69035;BME280;56091;55.756;37.412;2023-04-29T13:46:05;99179.81;;;17.35;24.47
69035;BME280;56091;55.756;37.412;2023-04-29T13:51:07;99113.94;;;17.98;22.29
69035;BME280;56091;55.756;37.412;2023-04-29T13:56:08;99160.31;;;19.02;22.02
69035;BME280;56091;55.756;37.412;2023-04-29T14:01:09;99171.03;;;18.53;22.39
69035;BME280;56091;55.756;37.412;2023-04-29T14:06:10;99161.97;;;16.12;25.40
69035;BME280;56091;55.756;37.412;2023-04-29T14:11:11;99165.03;;;15.43;26.26
69035;BME280;56091;55.756;37.412;2023-04-29T14:16:12;99159.03;;;17.12;24.52
69035;BME280;56091;55.756;37.412;2023-04-29T14:21:13;99170.41;;;22.10;18.32
69035;BME280;56091;55.756;37.412;2023-04-29T14:26:14;99148.38;;;25.06;16.18
69035;BME280;56091;55.756;37.412;2023-04-29T14:31:18;99159.41;;;26.01;14.24
69035;BME280;56091;55.756;37.412;2023-04-29T14:36:19;99165.78;;;26.41;13.37
69035;BME280;56091;55.756;37.412;2023-04-29T14:41:20;99157.59;;;26.87;12.84
69035;BME280;56091;55.756;37.412;2023-04-29T14:46:21;99144.88;;;27.78;13.30
69035;BME280;56091;55.756;37.412;2023-04-29T14:51:22;99160.38;;;28.74;12.16
69035;BME280;56091;55.756;37.412;2023-04-29T14:56:24;99164.16;;;29.89;11.05
69035;BME280;56091;55.756;37.412;2023-04-29T15:01:28;99165.09;;;28.39;11.38
69035;BME280;56091;55.756;37.412;2023-04-29T15:06:30;99165.75;;;28.93;11.17
69035;BME280;56091;55.756;37.412;2023-04-29T15:11:31;99157.22;;;30.31;10.82
69035;BME280;56091;55.756;37.412;2023-04-29T15:16:33;99165.47;;;31.69;10.10
69035;BME280;56091;55.756;37.412;2023-04-29T15:21:34;99168.59;;;32.10;9.82
69035;BME280;56091;55.756;37.412;2023-04-29T15:26:35;99159.00;;;32.15;9.25
69035;BME280;56091;55.756;37.412;2023-04-29T15:31:36;99165.72;;;30.63;10.91
69035;BME280;56091;55.756;37.412;2023-04-29T15:36:37;99156.66;;;26.21;13.72
69035;BME280;56091;55.756;37.412;2023-04-29T15:41:40;99181.00;;;22.41;17.07
69035;BME280;56091;55.756;37.412;2023-04-29T15:46:41;99164.69;;;20.09;19.04
69035;BME280;56091;55.756;37.412;2023-04-29T15:51:42;99180.22;;;18.57;21.14
69035;BME280;56091;55.756;37.412;2023-04-29T15:56:43;99164.41;;;16.84;22.47
69035;BME280;56091;55.756;37.412;2023-04-29T16:01:46;99151.03;;;15.98;24.13
69035;BME280;56091;55.756;37.412;2023-04-29T16:06:47;99178.09;;;15.65;24.21
69035;BME280;56091;55.756;37.412;2023-04-29T16:11:48;99189.09;;;14.72;24.94
69035;BME280;56091;55.756;37.412;2023-04-29T16:16:51;99195.31;;;14.28;25.83
69035;BME280;56091;55.756;37.412;2023-04-29T16:21:52;99198.09;;;13.68;26.87
69035;BME280;56091;55.756;37.412;2023-04-29T16:26:55;99180.78;;;13.54;27.63
69035;BME280;56091;55.756;37.412;2023-04-29T16:31:56;99199.53;;;13.24;27.86
69035;BME280;56091;55.756;37.412;2023-04-29T16:36:56;99200.94;;;12.81;28.92
69035;BME280;56091;55.756;37.412;2023-04-29T16:41:57;99211.22;;;12.74;29.32
69035;BME280;56091;55.756;37.412;2023-04-29T16:46:59;99206.34;;;12.60;29.91
69035;BME280;56091;55.756;37.412;2023-04-29T16:52:00;99216.59;;;12.38;29.09
69035;BME280;56091;55.756;37.412;2023-04-29T16:57:00;99221.72;;;12.24;29.66
69035;BME280;56091;55.756;37.412;2023-04-29T17:02:01;99223.28;;;11.99;30.49
69035;BME280;56091;55.756;37.412;2023-04-29T17:07:05;99216.38;;;11.71;30.44
69035;BME280;56091;55.756;37.412;2023-04-29T17:12:06;99187.81;;;11.27;33.38
69035;BME280;56091;55.756;37.412;2023-04-29T17:17:10;99235.69;;;11.47;33.43
69035;BME280;56091;55.756;37.412;2023-04-29T17:22:10;99212.84;;;11.18;32.56
69035;BME280;56091;55.756;37.412;2023-04-29T17:27:12;99234.97;;;11.14;32.59
69035;BME280;56091;55.756;37.412;2023-04-29T17:32:13;99227.25;;;10.96;32.85
69035;BME280;56091;55.756;37.412;2023-04-29T17:37:16;99248.31;;;10.94;33.68
69035;BME280;56091;55.756;37.412;2023-04-29T17:42:24;99245.84;;;10.87;33.71
69035;BME280;56091;55.756;37.412;2023-04-29T17:47:28;99243.00;;;10.72;34.33
69035;BME280;56091;55.756;37.412;2023-04-29T17:52:29;99262.88;;;10.61;35.18
69035;BME280;56091;55.756;37.412;2023-04-29T17:57:30;99256.06;;;10.53;35.17
69035;BME280;56091;55.756;37.412;2023-04-29T18:02:32;99271.16;;;10.54;34.94
69035;BME280;56091;55.756;37.412;2023-04-29T18:07:33;99283.75;;;10.48;35.50
69035;BME280;56091;55.756;37.412;2023-04-29T18:12:34;99293.75;;;10.48;37.86
69035;BME280;56091;55.756;37.412;2023-04-29T18:17:35;99299.06;;;10.43;36.19
69035;BME280;56091;55.756;37.412;2023-04-29T18:22:35;99308.13;;;10.31;34.93
69035;BME280;56091;55.756;37.412;2023-04-29T18:27:36;99303.72;;;10.25;36.56
69035;BME280;56091;55.756;37.412;2023-04-29T18:32:37;99302.75;;;10.14;35.95
69035;BME280;56091;55.756;37.412;2023-04-29T18:37:38;99325.16;;;10.15;35.68
69035;BME280;56091;55.756;37.412;2023-04-29T18:42:39;99318.06;;;10.09;36.11
69035;BME280;56091;55.756;37.412;2023-04-29T18:47:41;99318.25;;;10.02;35.22
69035;BME280;56091;55.756;37.412;2023-04-29T18:52:44;99315.25;;;9.99;35.28
69035;BME280;56091;55.756;37.412;2023-04-29T18:57:45;99317.38;;;9.96;35.91
69035;BME280;56091;55.756;37.412;2023-04-29T19:02:48;99325.31;;;9.86;36.80
69035;BME280;56091;55.756;37.412;2023-04-29T19:07:49;99324.13;;;9.77;37.02
69035;BME280;56091;55.756;37.412;2023-04-29T19:12:50;99337.84;;;9.75;37.36
69035;BME280;56091;55.756;37.412;2023-04-29T19:17:50;99346.50;;;9.77;37.62
69035;BME280;56091;55.756;37.412;2023-04-29T19:22:51;99349.34;;;9.71;37.05
69035;BME280;56091;55.756;37.412;2023-04-29T19:27:52;99347.00;;;9.57;37.33
69035;BME280;56091;55.756;37.412;2023-04-29T19:32:53;99354.50;;;9.55;37.50
69035;BME280;56091;55.756;37.412;2023-04-29T19:37:54;99355.25;;;9.51;38.01
69035;BME280;56091;55.756;37.412;2023-04-29T19:42:55;99367.25;;;9.43;39.51
69035;BME280;56091;55.756;37.412;2023-04-29T19:47:58;99367.50;;;9.42;38.55
69035;BME280;56091;55.756;37.412;2023-04-29T19:53:01;99341.03;;;9.22;38.38
69035;BME280;56091;55.756;37.412;2023-04-29T19:58:02;99358.44;;;9.31;39.68
69035;BME280;56091;55.756;37.412;2023-04-29T20:03:03;99364.78;;;9.25;39.39
69035;BME280;56091;55.756;37.412;2023-04-29T20:08:05;99363.78;;;9.14;38.73
69035;BME280;56091;55.756;37.412;2023-04-29T20:13:06;99368.94;;;9.15;39.27
69035;BME280;56091;55.756;37.412;2023-04-29T20:18:07;99357.50;;;9.08;39.08
69035;BME280;56091;55.756;37.412;2023-04-29T20:23:08;99364.78;;;9.08;39.78
69035;BME280;56091;55.756;37.412;2023-04-29T20:28:09;99369.00;;;9.04;40.63
69035;BME280;56091;55.756;37.412;2023-04-29T20:33:09;99383.84;;;9.06;44.97
69035;BME280;56091;55.756;37.412;2023-04-29T20:38:10;99371.84;;;8.68;47.42
69035;BME280;56091;55.756;37.412;2023-04-29T20:43:11;99386.09;;;8.52;47.69
69035;BME280;56091;55.756;37.412;2023-04-29T20:48:12;99381.19;;;8.37;48.37
69035;BME280;56091;55.756;37.412;2023-04-29T20:53:13;99378.72;;;8.35;47.82
69035;BME280;56091;55.756;37.412;2023-04-29T20:58:14;99381.53;;;8.29;46.78
69035;BME280;56091;55.756;37.412;2023-04-29T21:03:15;99381.69;;;8.22;47.21
69035;BME280;56091;55.756;37.412;2023-04-29T21:08:16;99384.72;;;8.26;48.50
69035;BME280;56091;55.756;37.412;2023-04-29T21:13:18;99381.91;;;8.20;48.71
69035;BME280;56091;55.756;37.412;2023-04-29T21:18:19;99364.75;;;8.10;49.72
69035;BME280;56091;55.756;37.412;2023-04-29T21:23:20;99377.59;;;8.08;50.46
69035;BME280;56091;55.756;37.412;2023-04-29T21:28:22;99372.38;;;8.01;51.24
69035;BME280;56091;55.756;37.412;2023-04-29T21:33:23;99384.16;;;8.00;51.78
69035;BME280;56091;55.756;37.412;2023-04-29T21:38:24;99373.06;;;7.96;52.05
69035;BME280;56091;55.756;37.412;2023-04-29T21:43:26;99379.25;;;7.97;52.90
69035;BME280;56091;55.756;37.412;2023-04-29T21:48:27;99353.91;;;7.81;52.78
69035;BME280;56091;55.756;37.412;2023-04-29T21:53:28;99353.34;;;7.79;53.64
69035;BME280;56091;55.756;37.412;2023-04-29T21:58:28;99366.88;;;7.84;53.51
69035;BME280;56091;55.756;37.412;2023-04-29T22:03:35;99365.16;;;7.78;53.99
69035;BME280;56091;55.756;37.412;2023-04-29T22:08:36;99351.97;;;7.65;53.87
69035;BME280;56091;55.756;37.412;2023-04-29T22:13:38;99367.00;;;7.66;54.63
69035;BME280;56091;55.756;37.412;2023-04-29T22:18:40;99355.78;;;7.57;55.67
69035;BME280;56091;55.756;37.412;2023-04-29T22:23:41;99357.88;;;7.55;55.48
69035;BME280;56091;55.756;37.412;2023-04-29T22:28:42;99357.56;;;7.51;56.08
69035;BME280;56091;55.756;37.412;2023-04-29T22:33:43;99357.88;;;7.43;56.40
69035;BME280;56091;55.756;37.412;2023-04-29T22:38:44;99360.13;;;7.46;57.10
69035;BME280;56091;55.756;37.412;2023-04-29T22:43:45;99344.00;;;7.34;56.96
69035;BME280;56091;55.756;37.412;2023-04-29T22:48:46;99354.97;;;7.33;57.63
69035;BME280;56091;55.756;37.412;2023-04-29T22:53:46;99351.69;;;7.31;57.69
69035;BME280;56091;55.756;37.412;2023-04-29T22:58:47;99354.38;;;7.31;58.17
69035;BME280;56091;55.756;37.412;2023-04-29T23:03:48;99331.41;;;7.23;58.55
69035;BME280;56091;55.756;37.412;2023-04-29T23:08:54;99343.97;;;7.22;58.88
69035;BME280;56091;55.756;37.412;2023-04-29T23:13:55;99341.78;;;7.19;59.36
69035;BME280;56091;55.756;37.412;2023-04-29T23:18:56;99339.53;;;7.16;59.08
69035;BME280;56091;55.756;37.412;2023-04-29T23:23:57;99343.75;;;7.12;59.28
69035;BME280;56091;55.756;37.412;2023-04-29T23:28:57;99341.50;;;7.09;59.74
69035;BME280;56091;55.756;37.412;2023-04-29T23:34:01;99336.63;;;7.06;59.17
69035;BME280;56091;55.756;37.412;2023-04-29T23:39:02;99342.22;;;7.04;59.47
69035;BME280;56091;55.756;37.412;2023-04-29T23:44:02;99341.41;;;7.04;59.69
69035;BME280;56091;55.756;37.412;2023-04-29T23:49:03;99343.50;;;7.02;59.77
69035;BME280;56091;55.756;37.412;2023-04-29T23:54:04;99340.81;;;7.02;60.58
69035;BME280;56091;55.756;37.412;2023-04-29T23:59:05;99340.44;;;6.98;60.87
